This is the latest recevied weather packets stored in our database for station/object IW1RID-3. If no packets are shown the sender has not sent any weather packets the latest 10 day(s).
| Time | Temp. | Humidity | Pressure | Rain* | Wind** | Luminosity | Snow |
|---|---|---|---|---|---|---|---|
| 1787854172 | 28.33° C | 77% | 1071.7 hPa | - | - | - | - |
| 1787852966 | 28.89° C | 74% | 1071.5 hPa | - | - | - | - |
| 1787851761 | 29.44° C | 71% | 1071.6 hPa | - | - | - | - |
| 1787850554 | 28.89° C | 71% | 1071.8 hPa | - | - | - | - |
| 1787848142 | 30.56° C | 66% | 1072.3 hPa | - | - | - | - |
| 1787846936 | 31.67° C | 61% | 1072.5 hPa | - | - | - | - |
| 1787845731 | 31.67° C | 60% | 1072.9 hPa | - | - | - | - |
| 1787844524 | 32.22° C | 60% | 1073.4 hPa | - | - | - | - |
| 1787843320 | 32.22° C | 59% | 1073.7 hPa | - | - | - | - |
| 1787842115 | 31.11° C | 65% | 1073.7 hPa | - | - | - | - |
| 1787840911 | 30° C | 65% | 1073.5 hPa | - | - | - | - |
| 1787839705 | 31.11° C | 60% | 1073.6 hPa | - | - | - | - |
| 1787838500 | 31.67° C | 57% | 1073.7 hPa | - | - | - | - |
| 1787837296 | 31.67° C | 56% | 1073.5 hPa | - | - | - | - |
| 1787836092 | 32.22° C | 55% | 1073.2 hPa | - | - | - | - |
| 1787834886 | 31.67° C | 54% | 1073.3 hPa | - | - | - | - |
| 1787834800 | 32.22° C | 53% | 1073.3 hPa | - | - | - | - |
| 1787833595 | 33.33° C | 51% | 1073.2 hPa | - | - | - | - |
| 1787832390 | 33.33° C | 49% | 1073.2 hPa | - | - | - | - |
| 1787831186 | 32.78° C | 47% | 1072.9 hPa | - | - | - | - |
| 1787828776 | 32.22° C | 48% | 1073.8 hPa | - | - | - | - |
| 1787827571 | 31.67° C | 50% | 1074 hPa | - | - | - | - |
| 1787826366 | 31.67° C | 51% | 1073.7 hPa | - | - | - | - |
| 1787825162 | 30.56° C | 53% | 1073.7 hPa | - | - | - | - |
| 1787823957 | 31.11° C | 52% | 1073.7 hPa | - | - | - | - |
* Rain since midnight (hover to see other rain measurements)
** Current wind speed in m/s (hover to see current wind gust speed)